Home > Products > Valid Products > TAF

000
FTUS45 KSLC 060916 AAA
TAFCDC
TAF AMD
KCDC 060916Z 0609/0706 19007KT P6SM -SHRA BKN100 BKN200
      TEMPO 0609/0610 17015G25KT -TSRA BKN060CB
     FM061000 19005KT P6SM SCT130 BKN200
     FM061700 20014G24KT P6SM SCT100 BKN200
     FM070000 19010G20KT P6SM VCSH BKN060 BKN100=



000
FTUS45 KSLC 060908 AAC
TAFOGD
TAF AMD
KOGD 060908Z 0609/0706 15008KT P6SM BKN200
     FM061700 10010G18KT P6SM SCT120 BKN200
     FM062100 05010G20KT P6SM BKN100 BKN150
     FM070300 16008KT P6SM BKN100 BKN150=



000
FTUS45 KSLC 060906 AAA
TAFENV
TAF AMD
KENV 060906Z 0609/0706 35010G16KT P6SM BKN130
     FM061100 01008KT P6SM BKN130
     FM061600 10008KT P6SM BKN150
      AMD LTD TO CLD VIS AND WIND=



000
FTUS45 KSLC 060845 AAC
TAFSLC
TAF AMD
KSLC 060845Z 0609/0712 15008KT P6SM BKN130 BKN200
     FM061800 17014G24KT P6SM BKN130 BKN200
     FM070300 15009KT P6SM SCT130 BKN200=



000
FTUS45 KSLC 060806 AAB
TAFPVU
TAF AMD
KPVU 060806Z 0608/0706 12017G27KT P6SM BKN200
     FM061000 14009KT P6SM BKN200
     FM061900 13011G18KT P6SM SCT120 BKN200
     FM070100 13010KT P6SM BKN200
      AMD LTD TO CLD VIS AND WIND=



000
FTUS45 KSLC 060805 AAB
TAFOGD
TAF AMD
KOGD 060805Z 0608/0706 14009G17KT P6SM SCT130 OVC200
     FM061000 16010KT P6SM BKN200
     FM061700 10010G18KT P6SM SCT120 BKN200
     FM062100 05010G20KT P6SM BKN100 BKN150
     FM070300 16008KT P6SM BKN100 BKN150=



000
FTUS45 KSLC 060700 AAA
TAFOGD
TAF AMD
KOGD 060700Z 0607/0706 14012G20KT P6SM BKN130 OVC200
     FM060800 17006KT P6SM BKN200
     FM061700 10010G18KT P6SM SCT120 BKN200
     FM062100 05010G20KT P6SM BKN100 BKN150
     FM070300 16008KT P6SM BKN100 BKN150=



000
FTUS45 KSLC 060700 AAA
TAFOGD
TAF AMD
KOGD 060700Z 0607/0706 14012G20KT P6SM BKN130 OVC200
     FM060800 17006KT P6SM BKN200
     FM061700 10010G18KT P6SM SCT120 BKN200
     FM062100 05010G20KT P6SM BKN100 BKN150
     FM070300 16008KT P6SM BKN100 BKN150=



000
FTUS45 KSLC 060659 AAA
TAFPVU
TAF AMD
KPVU 060659Z 0607/0706 12017G27KT P6SM BKN200
     FM060800 14009KT P6SM BKN200
     FM061900 13011G18KT P6SM SCT120 BKN200
     FM070100 13010KT P6SM BKN200
      AMD LTD TO CLD VIS AND WIND=



000
FTUS45 KSLC 060659 AAA
TAFPVU
TAF AMD
KPVU 060659Z 0607/0706 12017G27KT P6SM BKN200
     FM060800 14009KT P6SM BKN200
     FM061900 13011G18KT P6SM SCT120 BKN200
     FM070100 13010KT P6SM BKN200
      AMD LTD TO CLD VIS AND WIND=



000
FTUS45 KSLC 060539
TAFLGU
TAF
KLGU 060539Z 0606/0706 VRB05KT P6SM BKN150 OVC200
     FM061900 12009KT P6SM VCSH BKN080 BKN130
     FM070100 09011G20KT P6SM BKN070=



000
FTUS45 KSLC 060539
TAFPVU
TAF
KPVU 060539Z 0606/0706 12017G27KT P6SM BKN200
     FM060700 14009KT P6SM BKN200
     FM061900 13011G18KT P6SM SCT120 BKN200
     FM070100 13010KT P6SM BKN200
      AMD LTD TO CLD VIS AND WIND=



000
FTUS45 KSLC 060539
TAFSLC
TAF
KSLC 060539Z 0606/0712 15008KT P6SM SCT150 BKN200
     FM061800 17014G24KT P6SM BKN130 BKN200
     FM070300 15009KT P6SM SCT130 BKN200=



000
FTUS45 KSLC 060539
TAFOGD
TAF
KOGD 060539Z 0606/0706 14014G22KT P6SM BKN130 OVC200
     FM060700 17006KT P6SM BKN200
     FM061700 10010G18KT P6SM SCT120 BKN200
     FM062100 05010G20KT P6SM BKN100 BKN150
     FM070300 16008KT P6SM BKN100 BKN150=



000
FTUS45 KSLC 060539
TAFENV
TAF
KENV 060539Z 0606/0706 05010KT P6SM BKN120
     FM061600 10008KT P6SM BKN150
      AMD LTD TO CLD VIS AND WIND=



000
FTUS45 KSLC 060539
TAFBCE
TAF
KBCE 060539Z 0606/0706 VRB05KT P6SM SCT110 BKN150
     FM061500 15015G25KT P6SM SCT080 BKN150
     FM062100 17012G20KT P6SM BKN070 BKN140
     FM070200 23010KT P6SM VCSH BKN070 BKN100=



000
FTUS45 KSLC 060539
TAFCDC
TAF
KCDC 060539Z 0606/0706 19007KT P6SM BKN200
     FM061700 20014G24KT P6SM SCT100 BKN200
     FM070000 19010G20KT P6SM VCSH BKN060 BKN100=



000
FTUS45 KSLC 060539
TAFSGU
TAF
KSGU 060539Z 0606/0706 VRB06KT P6SM BKN200
     FM061700 20013G23KT P6SM SCT080 BKN200
     FM062100 24013G23KT P6SM VCSH BKN080 OVC140
     FM070100 24010KT P6SM SCT080 BKN140
      AMD LTD TO CLD VIS AND WIND=



000
FTUS45 KSLC 060322 AAA
TAFPVU
TAF AMD
KPVU 060322Z 0603/0624 11015G25KT P6SM BKN130 OVC200
     FM060500 12008KT P6SM BKN200
     FM061900 19012KT P6SM BKN120 BKN200
      AMD LTD TO CLD VIS AND WIND=



000
FTUS45 KSLC 060308 AAB
TAFSLC
TAF AMD
KSLC 060308Z 0603/0706 34005KT P6SM SCT140 BKN200
     FM060400 19011KT P6SM BKN120 OVC200
     FM061700 17014G22KT P6SM BKN120 OVC200
     FM070300 15009KT P6SM BKN120 BKN200=



000
FTUS45 KSLC 060308 AAB
TAFSLC
TAF AMD
KSLC 060308Z 0603/0706 34005KT P6SM SCT140 BKN200
     FM060400 19011KT P6SM BKN120 OVC200
     FM061700 17014G22KT P6SM BKN120 OVC200
     FM070300 15009KT P6SM BKN120 BKN200=



000
FTUS45 KSLC 060029 AAA
TAFSGU
TAF AMD
KSGU 060029Z 0600/0624 26015G25KT P6SM FEW250
     FM060200 26011KT P6SM FEW200
     FM060400 VRB06KT P6SM SCT200
     FM061700 20013G23KT P6SM SCT080 BKN200
      AMD LTD TO CLD VIS AND WIND=



000
FTUS45 KSLC 060029 AAA
TAFSGU
TAF AMD
KSGU 060029Z 0600/0624 26015G25KT P6SM FEW250
     FM060200 26011KT P6SM FEW200
     FM060400 VRB06KT P6SM SCT200
     FM061700 20013G23KT P6SM SCT080 BKN200
      AMD LTD TO CLD VIS AND WIND=



000
FTUS45 KSLC 060028 AAA
TAFLGU
TAF AMD
KLGU 060028Z 0600/0624 06007KT P6SM SCT150 BKN200
     FM060200 VRB05KT P6SM BKN100 OVC200
     FM061900 12007KT P6SM BKN080 BKN130=



000
FTUS45 KSLC 060028 AAA
TAFLGU
TAF AMD
KLGU 060028Z 0600/0624 06007KT P6SM SCT150 BKN200
     FM060200 VRB05KT P6SM BKN100 OVC200
     FM061900 12007KT P6SM BKN080 BKN130=



000
FTUS45 KSLC 052334
TAFSGU
TAF
KSGU 052334Z 0600/0624 21015G25KT P6SM FEW250
     FM060100 26011KT P6SM FEW200
     FM060400 VRB06KT P6SM SCT200
     FM061700 20013G23KT P6SM SCT080 BKN200
      AMD LTD TO CLD VIS AND WIND=



000
FTUS45 KSLC 052334
TAFLGU
TAF
KLGU 052334Z 0600/0624 12012G22KT P6SM SCT150 BKN200
     FM060100 15009KT P6SM SCT150 BKN200
     FM060200 VRB05KT P6SM BKN100 OVC200
     FM061900 12007KT P6SM BKN080 BKN130=



000
FTUS45 KSLC 052334
TAFOGD
TAF
KOGD 052334Z 0600/0624 18013G20KT P6SM SCT120 BKN200
     FM060200 17010KT P6SM BKN130 OVC200
     FM062000 29009KT P6SM BKN120 BKN200=



000
FTUS45 KSLC 052334
TAFENV
TAF
KENV 052334Z 0600/0624 08005KT P6SM BKN200
     FM060600 31005KT P6SM BKN200
     FM061600 10008KT P6SM BKN150
      AMD LTD TO CLD VIS AND WIND=



000
FTUS45 KSLC 052334
TAFLGU
TAF
KLGU 052334Z 0600/0624 12012G22KT P6SM SCT150 BKN200
     FM060100 15009KT P6SM SCT150 BKN200
     FM060200 VRB05KT P6SM BKN100 OVC200
     FM061900 12007KT P6SM BKN080 BKN130=



000
FTUS45 KSLC 052334
TAFSLC
TAF
KSLC 052334Z 0600/0706 17013G20KT P6SM SCT140 BKN200
     FM060300 17013KT P6SM BKN120 OVC200
     FM061700 17014G22KT P6SM BKN120 OVC200
     FM070300 15009KT P6SM BKN120 BKN200=



000
FTUS45 KSLC 052334
TAFSGU
TAF
KSGU 052334Z 0600/0624 21015G25KT P6SM FEW250
     FM060100 26011KT P6SM FEW200
     FM060400 VRB06KT P6SM SCT200
     FM061700 20013G23KT P6SM SCT080 BKN200
      AMD LTD TO CLD VIS AND WIND=



000
FTUS45 KSLC 052334
TAFOGD
TAF
KOGD 052334Z 0600/0624 18013G20KT P6SM SCT120 BKN200
     FM060200 17010KT P6SM BKN130 OVC200
     FM062000 29009KT P6SM BKN120 BKN200=



000
FTUS45 KSLC 052334
TAFENV
TAF
KENV 052334Z 0600/0624 08005KT P6SM BKN200
     FM060600 31005KT P6SM BKN200
     FM061600 10008KT P6SM BKN150
      AMD LTD TO CLD VIS AND WIND=



000
FTUS45 KSLC 052334
TAFBCE
TAF
KBCE 052334Z 0600/0624 15022G33KT P6SM SCT130
     FM060200 14010KT P6SM SCT130
     FM061600 15015G25KT P6SM SCT080 BKN150=



000
FTUS45 KSLC 052334
TAFPVU
TAF
KPVU 052334Z 0600/0624 15010KT P6SM SCT130 BKN200
     FM060200 14008KT P6SM BKN130 OVC200
     FM061900 19012KT P6SM BKN120 BKN200
      AMD LTD TO CLD VIS AND WIND=



000
FTUS45 KSLC 052334
TAFSLC
TAF
KSLC 052334Z 0600/0706 17013G20KT P6SM SCT140 BKN200
     FM060300 17013KT P6SM BKN120 OVC200
     FM061700 17014G22KT P6SM BKN120 OVC200
     FM070300 15009KT P6SM BKN120 BKN200=



000
FTUS45 KSLC 052334
TAFCDC
TAF
KCDC 052334Z 0600/0624 20024G35KT P6SM FEW140 SCT200
     FM060100 20011G22KT P6SM SCT200
     FM060300 19007KT P6SM SCT200
     FM061700 20014G24KT P6SM SCT100 BKN200=



000
FTUS45 KSLC 052334
TAFPVU
TAF
KPVU 052334Z 0600/0624 15010KT P6SM SCT130 BKN200
     FM060200 14008KT P6SM BKN130 OVC200
     FM061900 19012KT P6SM BKN120 BKN200
      AMD LTD TO CLD VIS AND WIND=



000
FTUS45 KSLC 052334
TAFCDC
TAF
KCDC 052334Z 0600/0624 20024G35KT P6SM FEW140 SCT200
     FM060100 20011G22KT P6SM SCT200
     FM060300 19007KT P6SM SCT200
     FM061700 20014G24KT P6SM SCT100 BKN200=



000
FTUS45 KSLC 052334
TAFBCE
TAF
KBCE 052334Z 0600/0624 15022G33KT P6SM SCT130
     FM060200 14010KT P6SM SCT130
     FM061600 15015G25KT P6SM SCT080 BKN150=



000
FTUS45 KSLC 052316 AAB
TAFLGU
TAF AMD
KLGU 052316Z 0523/0618 12012G22KT P6SM SCT150 BKN200
     FM060100 15009KT P6SM SCT150 BKN200
     FM060200 VRB05KT P6SM BKN100 OVC200=



000
FTUS45 KSLC 052316 AAB
TAFLGU
TAF AMD
KLGU 052316Z 0523/0618 12012G22KT P6SM SCT150 BKN200
     FM060100 15009KT P6SM SCT150 BKN200
     FM060200 VRB05KT P6SM BKN100 OVC200=



000
FTUS45 KSLC 052212 AAA
TAFPVU
TAF AMD
KPVU 052212Z 0522/0618 16010G17KT P6SM SCT150 BKN200
     FM060200 14008KT P6SM BKN130 OVC200
      AMD LTD TO CLD VIS AND WIND=



000
FTUS45 KSLC 052212 AAA
TAFPVU
TAF AMD
KPVU 052212Z 0522/0618 16010G17KT P6SM SCT150 BKN200
     FM060200 14008KT P6SM BKN130 OVC200
      AMD LTD TO CLD VIS AND WIND=



000
FTUS45 KSLC 052210 AAA
TAFENV
TAF AMD
KENV 052210Z 0522/0618 11005KT P6SM BKN200
     FM060600 31005KT P6SM BKN200
     FM061600 08008KT P6SM BKN150
      AMD LTD TO CLD VIS AND WIND=



000
FTUS45 KSLC 052210 AAA
TAFLGU
TAF AMD
KLGU 052210Z 0522/0618 20007KT P6SM SCT150 BKN200
     FM060100 VRB05KT P6SM BKN100 OVC200=



000
FTUS45 KSLC 052102 AAA
TAFSLC
TAF AMD
KSLC 052102Z 0521/0624 19018G28KT P6SM SCT140 BKN250
     FM060300 17013KT P6SM BKN120 OVC200
     FM061700 15014G24KT P6SM BKN100 OVC150=



000
FTUS45 KSLC 051739
TAFSLC
TAF
KSLC 051739Z 0518/0624 19011KT P6SM SCT150 OVC250
     FM052000 18015G25KT P6SM SCT140 BKN250
     FM060300 17011KT P6SM BKN130 OVC200
     FM061800 18014G24KT P6SM BKN120 BKN150=



000
FTUS45 KSLC 051739
TAFOGD
TAF
KOGD 051739Z 0518/0618 19009KT P6SM BKN200
     FM051900 19013G20KT P6SM SCT120 BKN200
     FM060200 17010KT P6SM BKN130 OVC200=



000
FTUS45 KSLC 051739
TAFENV
TAF
KENV 051739Z 0518/0618 12010G17KT P6SM BKN200
     FM060100 11005KT P6SM BKN200
     FM060600 31005KT P6SM BKN200
     FM061600 08008KT P6SM BKN150
      AMD LTD TO CLD VIS AND WIND=



000
FTUS45 KSLC 051739
TAFCDC
TAF
KCDC 051739Z 0518/0618 20017G27KT P6SM FEW140 SCT200
     FM052000 20024G34KT P6SM FEW140 SCT200
     FM060100 20011G22KT P6SM SCT200
     FM060300 19007KT P6SM SCT200
     FM061700 20014G24KT P6SM SCT100 BKN200=



000
FTUS45 KSLC 051739
TAFBCE
TAF
KBCE 051739Z 0518/0618 15015KT P6SM SCT140
     FM052000 16020G30KT P6SM SCT130
     FM060000 14010KT P6SM SCT130
     FM061600 15015G25KT P6SM SCT080 BKN150=



000
FTUS45 KSLC 051739
TAFPVU
TAF
KPVU 051739Z 0518/0618 12011KT P6SM SCT150 BKN200
     FM052000 19010G17KT P6SM SCT150 BKN200
     FM060200 14008KT P6SM BKN130 OVC200
      AMD LTD TO CLD VIS AND WIND=



000
FTUS45 KSLC 051739
TAFSGU
TAF
KSGU 051739Z 0518/0618 18018G30KT P6SM FEW250
     FM060100 26011KT P6SM FEW200
     FM060400 VRB06KT P6SM SCT200
     FM061700 20013G23KT P6SM SCT080 BKN200
      AMD LTD TO CLD VIS AND WIND=



000
FTUS45 KSLC 051739
TAFSLC
TAF
KSLC 051739Z 0518/0624 19011KT P6SM SCT150 OVC250
     FM052000 18015G25KT P6SM SCT140 BKN250
     FM060300 17011KT P6SM BKN130 OVC200
     FM061800 18014G24KT P6SM BKN120 BKN150=



000
FTUS45 KSLC 051739
TAFPVU
TAF
KPVU 051739Z 0518/0618 12011KT P6SM SCT150 BKN200
     FM052000 19010G17KT P6SM SCT150 BKN200
     FM060200 14008KT P6SM BKN130 OVC200
      AMD LTD TO CLD VIS AND WIND=



000
FTUS45 KSLC 051739
TAFOGD
TAF
KOGD 051739Z 0518/0618 19009KT P6SM BKN200
     FM051900 19013G20KT P6SM SCT120 BKN200
     FM060200 17010KT P6SM BKN130 OVC200=



000
FTUS45 KSLC 051739
TAFBCE
TAF
KBCE 051739Z 0518/0618 15015KT P6SM SCT140
     FM052000 16020G30KT P6SM SCT130
     FM060000 14010KT P6SM SCT130
     FM061600 15015G25KT P6SM SCT080 BKN150=



000
FTUS45 KSLC 051739
TAFLGU
TAF
KLGU 051739Z 0518/0618 36004KT P6SM BKN200
     FM051900 20010G17KT P6SM SCT150 BKN200
     FM060100 VRB05KT P6SM BKN100 OVC200=



000
FTUS45 KSLC 051739
TAFLGU
TAF
KLGU 051739Z 0518/0618 36004KT P6SM BKN200
     FM051900 20010G17KT P6SM SCT150 BKN200
     FM060100 VRB05KT P6SM BKN100 OVC200=



000
FTUS45 KSLC 051739
TAFCDC
TAF
KCDC 051739Z 0518/0618 20017G27KT P6SM FEW140 SCT200
     FM052000 20024G34KT P6SM FEW140 SCT200
     FM060100 20011G22KT P6SM SCT200
     FM060300 19007KT P6SM SCT200
     FM061700 20014G24KT P6SM SCT100 BKN200=



000
FTUS45 KSLC 051739
TAFSGU
TAF
KSGU 051739Z 0518/0618 18018G30KT P6SM FEW250
     FM060100 26011KT P6SM FEW200
     FM060400 VRB06KT P6SM SCT200
     FM061700 20013G23KT P6SM SCT080 BKN200
      AMD LTD TO CLD VIS AND WIND=



000
FTUS45 KSLC 051739
TAFENV
TAF
KENV 051739Z 0518/0618 12010G17KT P6SM BKN200
     FM060100 11005KT P6SM BKN200
     FM060600 31005KT P6SM BKN200
     FM061600 08008KT P6SM BKN150
      AMD LTD TO CLD VIS AND WIND=



000
FTUS45 KSLC 051505 AAA
TAFSLC
TAF AMD
KSLC 051505Z 0515/0618 14011KT P6SM SCT150 OVC250
     FM051700 18015G25KT P6SM SCT140 BKN250
     FM060300 17012KT P6SM BKN140 OVC200=



000
FTUS45 KSLC 051120
TAFCDC
TAF
KCDC 051120Z 0512/0612 15008KT P6SM BKN200
     FM051600 20014G22KT P6SM FEW140 SCT200
     FM051800 20024G34KT P6SM FEW140 SCT200
     FM060200 20011G22KT P6SM SCT200
     FM060300 19007KT P6SM SCT200=



000
FTUS45 KSLC 051120
TAFENV
TAF
KENV 051120Z 0512/0612 VRB05KT P6SM BKN200
     FM051600 11010KT P6SM BKN200
     FM051900 12010G17KT P6SM BKN200
     FM060100 08008KT P6SM BKN150
      AMD LTD TO CLD VIS AND WIND=



000
FTUS45 KSLC 051120
TAFLGU
TAF
KLGU 051120Z 0512/0612 VRB05KT P6SM BKN200
     FM051800 20011G19KT P6SM SCT150 BKN200
     FM060100 VRB06KT P6SM BKN140 OVC200=



000
FTUS45 KSLC 051120
TAFSLC
TAF
KSLC 051120Z 0512/0618 16010KT P6SM FEW140 BKN200
     FM051700 18015G25KT P6SM SCT140 BKN200
     FM060200 15010KT P6SM BKN140 OVC200=



000
FTUS45 KSLC 051120
TAFOGD
TAF
KOGD 051120Z 0512/0612 17009KT P6SM BKN200
     FM051900 18013G20KT P6SM SCT140 BKN200
     FM060200 17010KT P6SM BKN140 OVC200=



000
FTUS45 KSLC 051120
TAFBCE
TAF
KBCE 051120Z 0512/0612 26008KT P6SM BKN140
     FM051500 14015KT P6SM SCT140
     FM051800 16020G30KT P6SM SCT130
     FM060000 14010KT P6SM SCT130=



000
FTUS45 KSLC 051120
TAFPVU
TAF
KPVU 051120Z 0512/0612 12011KT P6SM BKN200
     FM051900 20010G17KT P6SM SCT140 BKN200
     FM060200 14010KT P6SM BKN140 OVC200
      AMD LTD TO CLD VIS AND WIND=



000
FTUS45 KSLC 051120
TAFSGU
TAF
KSGU 051120Z 0512/0612 VRB05KT P6SM SCT250
     FM051900 21018G26KT P6SM FEW250
     FM060100 26011KT P6SM FEW200
     FM060400 VRB06KT P6SM SCT200
      AMD LTD TO CLD VIS AND WIND=



000
FTUS45 KSLC 051120
TAFENV
TAF
KENV 051120Z 0512/0612 VRB05KT P6SM BKN200
     FM051600 11010KT P6SM BKN200
     FM051900 12010G17KT P6SM BKN200
     FM060100 08008KT P6SM BKN150
      AMD LTD TO CLD VIS AND WIND=



000
FTUS45 KSLC 051120
TAFOGD
TAF
KOGD 051120Z 0512/0612 17009KT P6SM BKN200
     FM051900 18013G20KT P6SM SCT140 BKN200
     FM060200 17010KT P6SM BKN140 OVC200=



000
FTUS45 KSLC 051120
TAFBCE
TAF
KBCE 051120Z 0512/0612 26008KT P6SM BKN140
     FM051500 14015KT P6SM SCT140
     FM051800 16020G30KT P6SM SCT130
     FM060000 14010KT P6SM SCT130=



000
FTUS45 KSLC 051120
TAFPVU
TAF
KPVU 051120Z 0512/0612 12011KT P6SM BKN200
     FM051900 20010G17KT P6SM SCT140 BKN200
     FM060200 14010KT P6SM BKN140 OVC200
      AMD LTD TO CLD VIS AND WIND=



000
FTUS45 KSLC 051120
TAFSGU
TAF
KSGU 051120Z 0512/0612 VRB05KT P6SM SCT250
     FM051900 21018G26KT P6SM FEW250
     FM060100 26011KT P6SM FEW200
     FM060400 VRB06KT P6SM SCT200
      AMD LTD TO CLD VIS AND WIND=



000
FTUS45 KSLC 051120
TAFSLC
TAF
KSLC 051120Z 0512/0618 16010KT P6SM FEW140 BKN200
     FM051700 18015G25KT P6SM SCT140 BKN200
     FM060200 15010KT P6SM BKN140 OVC200=



000
FTUS45 KSLC 051120
TAFCDC
TAF
KCDC 051120Z 0512/0612 15008KT P6SM BKN200
     FM051600 20014G22KT P6SM FEW140 SCT200
     FM051800 20024G34KT P6SM FEW140 SCT200
     FM060200 20011G22KT P6SM SCT200
     FM060300 19007KT P6SM SCT200=



000
FTUS45 KSLC 051120
TAFLGU
TAF
KLGU 051120Z 0512/0612 VRB05KT P6SM BKN200
     FM051800 20011G19KT P6SM SCT150 BKN200
     FM060100 VRB06KT P6SM BKN140 OVC200=



000
FTUS45 KSLC 051010 AAA
TAFPVU
TAF AMD
KPVU 051010Z 0510/0606 12011KT P6SM BKN200
     FM051900 20010G17KT P6SM SCT140 BKN200
     FM060200 14010KT P6SM BKN140 OVC200
      AMD LTD TO CLD VIS AND WIND=



000
FTUS45 KSLC 051010 AAA
TAFPVU
TAF AMD
KPVU 051010Z 0510/0606 12011KT P6SM BKN200
     FM051900 20010G17KT P6SM SCT140 BKN200
     FM060200 14010KT P6SM BKN140 OVC200
      AMD LTD TO CLD VIS AND WIND=



000
FTUS45 KSLC 050858 AAA
TAFSLC
TAF AMD
KSLC 050858Z 0509/0612 16010KT P6SM BKN200
     FM051700 18015G25KT P6SM SCT140 BKN200
     FM060200 15010KT P6SM BKN140 OVC200=



000
FTUS45 KSLC 050532
TAFCDC
TAF
KCDC 050532Z 0506/0606 15008KT P6SM BKN200
     FM051600 20014G22KT P6SM FEW140 SCT200
     FM051800 20024G34KT P6SM FEW140 SCT200
     FM060200 20011G22KT P6SM BKN200=



000
FTUS45 KSLC 050532
TAFLGU
TAF
KLGU 050532Z 0506/0606 16009KT P6SM BKN200
     FM051800 20013G19KT P6SM SCT150 BKN200
     FM060100 VRB06KT P6SM BKN140 OVC200=



000
FTUS45 KSLC 050532
TAFOGD
TAF
KOGD 050532Z 0506/0606 17007KT P6SM BKN200
     FM051700 16011KT P6SM BKN200
     FM052000 23013G20KT P6SM SCT140 BKN200
     FM060200 17010KT P6SM BKN140 OVC200=



000
FTUS45 KSLC 050532
TAFENV
TAF
KENV 050532Z 0506/0606 VRB05KT P6SM SCT200
     FM051600 11010KT P6SM SCT200
     FM051900 12010G17KT P6SM SCT200
     FM060100 08008KT P6SM BKN150
      AMD LTD TO CLD VIS AND WIND=



000
FTUS45 KSLC 050532
TAFSGU
TAF
KSGU 050532Z 0506/0606 VRB05KT P6SM BKN250
     FM051900 22018G26KT P6SM SCT250
     FM060100 26014KT P6SM BKN250
      AMD LTD TO CLD VIS AND WIND=



000
FTUS45 KSLC 050532
TAFBCE
TAF
KBCE 050532Z 0506/0606 26008KT P6SM BKN140
     FM051500 14015KT P6SM SCT130
     FM051800 16020G30KT P6SM SCT130
     FM060000 14010KT P6SM BKN130=



000
FTUS45 KSLC 050532
TAFPVU
TAF
KPVU 050532Z 0506/0606 14008KT P6SM BKN200
     FM051900 20010G17KT P6SM SCT140 BKN200
     FM060200 14010KT P6SM BKN140 OVC200
      AMD LTD TO CLD VIS AND WIND=



000
FTUS45 KSLC 050532
TAFSLC
TAF
KSLC 050532Z 0506/0612 16008KT P6SM BKN200
     FM051700 18015G25KT P6SM SCT140 BKN200
     FM060200 15010KT P6SM BKN140 OVC200=



000
FTUS45 KSLC 050532
TAFLGU
TAF
KLGU 050532Z 0506/0606 16009KT P6SM BKN200
     FM051800 20013G19KT P6SM SCT150 BKN200
     FM060100 VRB06KT P6SM BKN140 OVC200=



000
FTUS45 KSLC 050532
TAFCDC
TAF
KCDC 050532Z 0506/0606 15008KT P6SM BKN200
     FM051600 20014G22KT P6SM FEW140 SCT200
     FM051800 20024G34KT P6SM FEW140 SCT200
     FM060200 20011G22KT P6SM BKN200=



000
FTUS45 KSLC 050532
TAFENV
TAF
KENV 050532Z 0506/0606 VRB05KT P6SM SCT200
     FM051600 11010KT P6SM SCT200
     FM051900 12010G17KT P6SM SCT200
     FM060100 08008KT P6SM BKN150
      AMD LTD TO CLD VIS AND WIND=



000
FTUS45 KSLC 050532
TAFPVU
TAF
KPVU 050532Z 0506/0606 14008KT P6SM BKN200
     FM051900 20010G17KT P6SM SCT140 BKN200
     FM060200 14010KT P6SM BKN140 OVC200
      AMD LTD TO CLD VIS AND WIND=



000
FTUS45 KSLC 050532
TAFSGU
TAF
KSGU 050532Z 0506/0606 VRB05KT P6SM BKN250
     FM051900 22018G26KT P6SM SCT250
     FM060100 26014KT P6SM BKN250
      AMD LTD TO CLD VIS AND WIND=



000
FTUS45 KSLC 050532
TAFBCE
TAF
KBCE 050532Z 0506/0606 26008KT P6SM BKN140
     FM051500 14015KT P6SM SCT130
     FM051800 16020G30KT P6SM SCT130
     FM060000 14010KT P6SM BKN130=



000
FTUS45 KSLC 050532
TAFSLC
TAF
KSLC 050532Z 0506/0612 16008KT P6SM BKN200
     FM051700 18015G25KT P6SM SCT140 BKN200
     FM060200 15010KT P6SM BKN140 OVC200=



000
FTUS45 KSLC 050532
TAFOGD
TAF
KOGD 050532Z 0506/0606 17007KT P6SM BKN200
     FM051700 16011KT P6SM BKN200
     FM052000 23013G20KT P6SM SCT140 BKN200
     FM060200 17010KT P6SM BKN140 OVC200=



000
FTUS45 KSLC 050234 AAB
TAFSLC
TAF AMD
KSLC 050234Z 0503/0606 01007KT P6SM SCT200
     FM050400 16008KT P6SM SKC
     FM051600 16015G25KT P6SM SKC=



000
FTUS45 KSLC 050015 AAA
TAFSGU
TAF AMD
KSGU 050015Z 0500/0524 28010KT P6SM SKC
     FM050100 22010KT P6SM SKC
     FM051900 22018G26KT P6SM SKC
      AMD LTD TO CLD VIS AND WIND=



000
FTUS45 KSLC 050015 AAA
TAFSGU
TAF AMD
KSGU 050015Z 0500/0524 28010KT P6SM SKC
     FM050100 22010KT P6SM SKC
     FM051900 22018G26KT P6SM SKC
      AMD LTD TO CLD VIS AND WIND=



000
FTUS45 KSLC 042343 CCA
TAFENV
TAF COR
KENV 042343Z 0500/0524 13008KT P6SM SCT200
     FM050300 VRB05KT P6SM SCT200
     FM051600 11010KT P6SM SCT200
     FM051800 12010G17KT P6SM SCT200
      AMD LTD TO CLD VIS AND WIND=



000
FTUS45 KSLC 042342 CCA
TAFOGD
TAF COR
KOGD 042342Z 0500/0524 22010KT P6SM FEW200
     FM050300 17007KT P6SM FEW200
     FM051700 16014KT P6SM FEW200=



000
FTUS45 KSLC 042341 CCB
TAFSLC
TAF COR
KSLC 042341Z 0500/0606 17012G19KT P6SM SCT200
     FM050300 16008KT P6SM SKC
     FM051600 16015G25KT P6SM SKC=



000
FTUS45 KSLC 042341 CCA
TAFPVU
TAF COR
KPVU 042341Z 0500/0524 VRB05KT P6SM SCT200
     FM051900 20010G17KT P6SM SCT200
      AMD LTD TO CLD VIS AND WIND=



000
FTUS45 KSLC 042340 CCA
TAFBCE
TAF COR
KBCE 042340Z 0500/0524 15012G20KT P6SM SKC
     FM050100 17008KT P6SM SKC
     FM051500 14015KT P6SM SKC
     FM051800 16020G30KT P6SM SKC=



000
FTUS45 KSLC 042339 CCA
TAFCDC
TAF COR
KCDC 042339Z 0500/0524 20016G26KT P6SM SKC
     FM050200 17008KT P6SM FEW200
     FM051800 19024G34KT P6SM FEW200=



000
FTUS45 KSLC 042339 CCA
TAFSGU
TAF COR
KSGU 042339Z 0500/0524 32010KT P6SM SKC
     FM050100 22010KT P6SM SKC
     FM051900 22018G26KT P6SM SKC
      AMD LTD TO CLD VIS AND WIND=



000
FTUS45 KSLC 042338
TAFPVU
TAF
KPVU 042338Z 0500/0524 VRB05KT P6SM SCT200
      AMD LTD TO CLD VIS AND WIND=



000
FTUS45 KSLC 042338
TAFSLC
TAF
KSLC 042338Z 0500/0606 17012G19KT P6SM SCT200
     FM050300 16008KT P6SM SKC=



000
FTUS45 KSLC 042338
TAFSGU
TAF
KSGU 042338Z 0500/0524 19010G17KT P6SM SKC
     FM050100 22010KT P6SM SKC
      AMD LTD TO CLD VIS AND WIND=



000
FTUS45 KSLC 042338
TAFOGD
TAF
KOGD 042338Z 0500/0524 22010KT P6SM FEW200
     FM050300 17007KT P6SM FEW200=



000
FTUS45 KSLC 042338
TAFCDC
TAF
KCDC 042338Z 0500/0524 20016G26KT P6SM SKC
     FM050200 17008KT P6SM FEW200=



000
FTUS45 KSLC 042338
TAFBCE
TAF
KBCE 042338Z 0500/0524 15012G20KT P6SM SKC
     FM050100 17008KT P6SM SKC=



000
FTUS45 KSLC 042338
TAFLGU
TAF
KLGU 042338Z 0500/0524 VRB04KT P6SM SKC=



000
FTUS45 KSLC 042338
TAFENV
TAF
KENV 042338Z 0500/0524 13008KT P6SM SCT200
     FM050300 VRB05KT P6SM SCT200
      AMD LTD TO CLD VIS AND WIND=



000
FTUS45 KSLC 042338
TAFPVU
TAF
KPVU 042338Z 0500/0524 VRB05KT P6SM SCT200
      AMD LTD TO CLD VIS AND WIND=



000
FTUS45 KSLC 042338
TAFENV
TAF
KENV 042338Z 0500/0524 13008KT P6SM SCT200
     FM050300 VRB05KT P6SM SCT200
      AMD LTD TO CLD VIS AND WIND=



000
FTUS45 KSLC 042338
TAFCDC
TAF
KCDC 042338Z 0500/0524 20016G26KT P6SM SKC
     FM050200 17008KT P6SM FEW200=



000
FTUS45 KSLC 042338
TAFSGU
TAF
KSGU 042338Z 0500/0524 19010G17KT P6SM SKC
     FM050100 22010KT P6SM SKC
      AMD LTD TO CLD VIS AND WIND=



000
FTUS45 KSLC 042338
TAFBCE
TAF
KBCE 042338Z 0500/0524 15012G20KT P6SM SKC
     FM050100 17008KT P6SM SKC=



000
FTUS45 KSLC 042338
TAFLGU
TAF
KLGU 042338Z 0500/0524 VRB04KT P6SM SKC=



000
FTUS45 KSLC 042338
TAFOGD
TAF
KOGD 042338Z 0500/0524 22010KT P6SM FEW200
     FM050300 17007KT P6SM FEW200=



000
FTUS45 KSLC 042338
TAFSLC
TAF
KSLC 042338Z 0500/0606 17012G19KT P6SM SCT200
     FM050300 16008KT P6SM SKC=



000
FTUS45 KSLC 042237 AAB
TAFSLC
TAF AMD
KSLC 042237Z 0423/0524 17012G19KT P6SM SCT200
     FM050300 16008KT P6SM SKC=



000
FTUS45 KSLC 042056 AAA
TAFSLC
TAF AMD
KSLC 042056Z 0421/0524 17012G19KT P6SM SCT200
     FM042200 33004KT P6SM FEW200
     FM050300 16008KT P6SM SKC=



000
FTUS45 KSLC 041720
TAFSGU
TAF
KSGU 041720Z 0418/0518 VRB04KT P6SM SKC
     FM042000 19010G17KT P6SM SKC
     FM050100 22010KT P6SM SKC
      AMD LTD TO CLD VIS AND WIND=



000
FTUS45 KSLC 041720
TAFPVU
TAF
KPVU 041720Z 0418/0518 VRB05KT P6SM SCT200
      AMD LTD TO CLD VIS AND WIND=



000
FTUS45 KSLC 041720
TAFOGD
TAF
KOGD 041720Z 0418/0518 18008KT P6SM SKC
     FM042100 22010KT P6SM FEW200
     FM050300 17007KT P6SM FEW200=



000
FTUS45 KSLC 041720
TAFCDC
TAF
KCDC 041720Z 0418/0518 17012G22KT P6SM SKC
     FM042000 20016G26KT P6SM SKC
     FM050200 17008KT P6SM FEW200=



000
FTUS45 KSLC 041720
TAFBCE
TAF
KBCE 041720Z 0418/0518 15012G20KT P6SM SKC
     FM050100 17008KT P6SM SKC=



000
FTUS45 KSLC 041720
TAFLGU
TAF
KLGU 041720Z 0418/0518 VRB04KT P6SM SKC=



000
FTUS45 KSLC 041720
TAFENV
TAF
KENV 041720Z 0418/0518 13008KT P6SM SCT200
     FM050300 VRB05KT P6SM SCT200
      AMD LTD TO CLD VIS AND WIND=



000
FTUS45 KSLC 041720
TAFSLC
TAF
KSLC 041720Z 0418/0524 17012G19KT P6SM SCT200
     FM042100 33010KT P6SM FEW200
     FM050300 16008KT P6SM SKC=



000
FTUS45 KSLC 041423 AAA
TAFSLC
TAF AMD
KSLC 041423Z 0414/0518 14010KT P6SM SKC
     FM041600 17012G19KT P6SM SCT200
     FM042000 33010KT P6SM FEW200
     FM050300 16008KT P6SM SKC=



000
FTUS45 KSLC 041423 AAA
TAFSLC
TAF AMD
KSLC 041423Z 0414/0518 14010KT P6SM SKC
     FM041600 17012G19KT P6SM SCT200
     FM042000 33010KT P6SM FEW200
     FM050300 16008KT P6SM SKC=



000
FTUS45 KSLC 041120
TAFSGU
TAF
KSGU 041120Z 0412/0512 VRB05KT P6SM SKC
     FM041800 19010G17KT P6SM SKC
     FM050100 22010KT P6SM SKC
      AMD LTD TO CLD VIS AND WIND=



000
FTUS45 KSLC 041120
TAFPVU
TAF
KPVU 041120Z 0412/0512 VRB05KT P6SM SCT200
      AMD LTD TO CLD VIS AND WIND=



000
FTUS45 KSLC 041120
TAFCDC
TAF
KCDC 041120Z 0412/0512 14005KT P6SM SKC
     FM041700 19012G22KT P6SM SKC
     FM042000 20016G26KT P6SM SKC
     FM050200 17008KT P6SM FEW200=



000
FTUS45 KSLC 041120
TAFOGD
TAF
KOGD 041120Z 0412/0512 18008KT P6SM SKC
     FM041900 22010KT P6SM FEW200
     FM050300 17007KT P6SM FEW200=



000
FTUS45 KSLC 041120
TAFCDC
TAF
KCDC 041120Z 0412/0512 14005KT P6SM SKC
     FM041700 19012G22KT P6SM SKC
     FM042000 20016G26KT P6SM SKC
     FM050200 17008KT P6SM FEW200=



000
FTUS45 KSLC 041120
TAFSGU
TAF
KSGU 041120Z 0412/0512 VRB05KT P6SM SKC
     FM041800 19010G17KT P6SM SKC
     FM050100 22010KT P6SM SKC
      AMD LTD TO CLD VIS AND WIND=



000
FTUS45 KSLC 041120
TAFBCE
TAF
KBCE 041120Z 0412/0512 26005KT P6SM FEW200
     FM041500 15012G20KT P6SM SKC
     FM050100 17008KT P6SM SKC=



000
FTUS45 KSLC 041120
TAFLGU
TAF
KLGU 041120Z 0412/0512 VRB04KT P6SM SKC=



000
FTUS45 KSLC 041120
TAFPVU
TAF
KPVU 041120Z 0412/0512 VRB05KT P6SM SCT200
      AMD LTD TO CLD VIS AND WIND=



000
FTUS45 KSLC 041120
TAFBCE
TAF
KBCE 041120Z 0412/0512 26005KT P6SM FEW200
     FM041500 15012G20KT P6SM SKC
     FM050100 17008KT P6SM SKC=



000
FTUS45 KSLC 041120
TAFOGD
TAF
KOGD 041120Z 0412/0512 18008KT P6SM SKC
     FM041900 22010KT P6SM FEW200
     FM050300 17007KT P6SM FEW200=



000
FTUS45 KSLC 041120
TAFENV
TAF
KENV 041120Z 0412/0512 VRB05KT P6SM SCT200
     FM041800 13008KT P6SM SCT200
     FM050300 VRB05KT P6SM SCT200
      AMD LTD TO CLD VIS AND WIND=



000
FTUS45 KSLC 041120
TAFSLC
TAF
KSLC 041120Z 0412/0518 17010KT P6SM SKC
     FM041400 17011G18KT P6SM SCT200
     FM042000 33010KT P6SM FEW200
     FM050300 16008KT P6SM SKC=



000
FTUS45 KSLC 041120
TAFENV
TAF
KENV 041120Z 0412/0512 VRB05KT P6SM SCT200
     FM041800 13008KT P6SM SCT200
     FM050300 VRB05KT P6SM SCT200
      AMD LTD TO CLD VIS AND WIND=



000
FTUS45 KSLC 041120
TAFLGU
TAF
KLGU 041120Z 0412/0512 VRB04KT P6SM SKC=



000
FTUS45 KSLC 041120
TAFSLC
TAF
KSLC 041120Z 0412/0518 17010KT P6SM SKC
     FM041400 17011G18KT P6SM SCT200
     FM042000 33010KT P6SM FEW200
     FM050300 16008KT P6SM SKC=



000
FTUS45 KSLC 040839 AAA
TAFSLC
TAF AMD
KSLC 040839Z 0409/0512 15007KT P6SM SKC
     FM041400 17010G17KT P6SM FEW200
     FM042000 33010KT P6SM SCT200
     FM050300 16008KT P6SM SCT150=



000
FTUS45 KSLC 040530
TAFCDC
TAF
KCDC 040530Z 0406/0506 14005KT P6SM SCT200
     FM041700 19012G22KT P6SM FEW200
     FM042000 20016G26KT P6SM FEW200
     FM050200 17008KT P6SM FEW200=



000
FTUS45 KSLC 040530
TAFLGU
TAF
KLGU 040530Z 0406/0506 VRB04KT P6SM SKC=



000
FTUS45 KSLC 040530
TAFCDC
TAF
KCDC 040530Z 0406/0506 14005KT P6SM SCT200
     FM041700 19012G22KT P6SM FEW200
     FM042000 20016G26KT P6SM FEW200
     FM050200 17008KT P6SM FEW200=



000
FTUS45 KSLC 040530
TAFLGU
TAF
KLGU 040530Z 0406/0506 VRB04KT P6SM SKC=



000
FTUS45 KSLC 040530
TAFOGD
TAF
KOGD 040530Z 0406/0506 17007KT P6SM SKC
     FM041900 22007KT P6SM SKC
     FM050300 17007KT P6SM SKC=



000
FTUS45 KSLC 040530
TAFENV
TAF
KENV 040530Z 0406/0506 VRB05KT P6SM SKC
     FM041800 13008KT P6SM SKC
      AMD LTD TO CLD VIS AND WIND=



000
FTUS45 KSLC 040530
TAFSLC
TAF
KSLC 040530Z 0406/0512 15006KT P6SM SKC
     FM041400 17010G17KT P6SM SCT200
     FM042000 33010KT P6SM SCT200
     FM050300 16008KT P6SM SCT150=



000
FTUS45 KSLC 040530
TAFSLC
TAF
KSLC 040530Z 0406/0512 15006KT P6SM SKC
     FM041400 17010G17KT P6SM SCT200
     FM042000 33010KT P6SM SCT200
     FM050300 16008KT P6SM SCT150=



000
FTUS45 KSLC 040530
TAFENV
TAF
KENV 040530Z 0406/0506 VRB05KT P6SM SKC
     FM041800 13008KT P6SM SKC
      AMD LTD TO CLD VIS AND WIND=



000
FTUS45 KSLC 040530
TAFBCE
TAF
KBCE 040530Z 0406/0506 26005KT P6SM FEW200
     FM041500 15012G20KT P6SM FEW180
     FM050100 17008KT P6SM SKC=



000
FTUS45 KSLC 040530
TAFSGU
TAF
KSGU 040530Z 0406/0506 VRB05KT P6SM SCT250
     FM041800 19010G17KT P6SM SKC
     FM050100 22010KT P6SM SKC
      AMD LTD TO CLD VIS AND WIND=



000
FTUS45 KSLC 040530
TAFOGD
TAF
KOGD 040530Z 0406/0506 17007KT P6SM SKC
     FM041900 22007KT P6SM SKC
     FM050300 17007KT P6SM SKC=



000
FTUS45 KSLC 040530
TAFPVU
TAF
KPVU 040530Z 0406/0506 13004KT P6SM SKC
     FM041700 VRB06KT P6SM SCT200
      AMD LTD TO CLD VIS AND WIND=



000
FTUS45 KSLC 040530
TAFPVU
TAF
KPVU 040530Z 0406/0506 13004KT P6SM SKC
     FM041700 VRB06KT P6SM SCT200
      AMD LTD TO CLD VIS AND WIND=



000
FTUS45 KSLC 040530
TAFSGU
TAF
KSGU 040530Z 0406/0506 VRB05KT P6SM SCT250
     FM041800 19010G17KT P6SM SKC
     FM050100 22010KT P6SM SKC
      AMD LTD TO CLD VIS AND WIND=



000
FTUS45 KSLC 040530
TAFBCE
TAF
KBCE 040530Z 0406/0506 26005KT P6SM FEW200
     FM041500 15012G20KT P6SM FEW180
     FM050100 17008KT P6SM SKC=



000
FTUS45 KSLC 032320
TAFLGU
TAF
KLGU 032320Z 0400/0424 VRB04KT P6SM SKC
     FM040800 13006KT P6SM SKC
     FM041500 30006KT P6SM SKC
     FM041900 23007KT P6SM SKC=



000
FTUS45 KSLC 032320
TAFOGD
TAF
KOGD 032320Z 0400/0424 32009KT P6SM SKC
     FM040300 17007KT P6SM SKC
     FM041900 22007KT P6SM SKC=



000
FTUS45 KSLC 032320
TAFCDC
TAF
KCDC 032320Z 0400/0424 29008KT P6SM SCT100
     FM040200 14005KT P6SM SKC
     FM041200 20008KT P6SM SCT100
     FM041700 20013G24KT P6SM SCT100=



000
FTUS45 KSLC 032320
TAFPVU
TAF
KPVU 032320Z 0400/0424 VRB04KT P6SM SKC
     FM040400 13006KT P6SM SKC
     FM041700 18010KT P6SM SCT120
      AMD LTD TO CLD VIS AND WIND=



000
FTUS45 KSLC 032320
TAFCDC
TAF
KCDC 032320Z 0400/0424 29008KT P6SM SCT100
     FM040200 14005KT P6SM SKC
     FM041200 20008KT P6SM SCT100
     FM041700 20013G24KT P6SM SCT100=



000
FTUS45 KSLC 032320
TAFBCE
TAF
KBCE 032320Z 0400/0424 14010KT P6SM FEW060
     FM040400 28008KT P6SM SKC
     FM041500 15012G20KT P6SM FEW180=



000
FTUS45 KSLC 032320
TAFENV
TAF
KENV 032320Z 0400/0424 13007KT P6SM SKC
     FM040300 27007KT P6SM SKC
     FM041000 VRB05KT P6SM SKC
     FM041800 13008KT P6SM SKC
      AMD LTD TO CLD VIS AND WIND=



000
FTUS45 KSLC 032320
TAFSGU
TAF
KSGU 032320Z 0400/0424 13010KT P6SM SKC
     FM041500 18010G17KT P6SM SKC
      AMD LTD TO CLD VIS AND WIND=



000
FTUS45 KSLC 032320
TAFSGU
TAF
KSGU 032320Z 0400/0424 13010KT P6SM SKC
     FM041500 18010G17KT P6SM SKC
      AMD LTD TO CLD VIS AND WIND=



000
FTUS45 KSLC 032320
TAFSLC
TAF
KSLC 032320Z 0400/0506 33008KT P6SM SCT200
     FM040400 15006KT P6SM SKC
     FM041900 17012G18KT P6SM SCT150
     FM050100 13010KT P6SM SCT120=



000
FTUS45 KSLC 032320
TAFBCE
TAF
KBCE 032320Z 0400/0424 14010KT P6SM FEW060
     FM040400 28008KT P6SM SKC
     FM041500 15012G20KT P6SM FEW180=



000
FTUS45 KSLC 032320
TAFLGU
TAF
KLGU 032320Z 0400/0424 VRB04KT P6SM SKC
     FM040800 13006KT P6SM SKC
     FM041500 30006KT P6SM SKC
     FM041900 23007KT P6SM SKC=



000
FTUS45 KSLC 032320
TAFOGD
TAF
KOGD 032320Z 0400/0424 32009KT P6SM SKC
     FM040300 17007KT P6SM SKC
     FM041900 22007KT P6SM SKC=



000
FTUS45 KSLC 032320
TAFENV
TAF
KENV 032320Z 0400/0424 13007KT P6SM SKC
     FM040300 27007KT P6SM SKC
     FM041000 VRB05KT P6SM SKC
     FM041800 13008KT P6SM SKC
      AMD LTD TO CLD VIS AND WIND=



000
FTUS45 KSLC 032320
TAFSLC
TAF
KSLC 032320Z 0400/0506 33008KT P6SM SCT200
     FM040400 15006KT P6SM SKC
     FM041900 17012G18KT P6SM SCT150
     FM050100 13010KT P6SM SCT120=



000
FTUS45 KSLC 032320
TAFPVU
TAF
KPVU 032320Z 0400/0424 VRB04KT P6SM SKC
     FM040400 13006KT P6SM SKC
     FM041700 18010KT P6SM SCT120
      AMD LTD TO CLD VIS AND WIND=



000
FTUS45 KSLC 032048 AAA
TAFSLC
TAF AMD
KSLC 032048Z 0321/0424 33008KT P6SM SCT200
     FM040400 15006KT P6SM SKC
     FM041900 31010KT P6SM SCT150=



000
FTUS45 KSLC 031734
TAFOGD
TAF
KOGD 031734Z 0318/0418 17008KT P6SM SKC
     FM031900 29007KT P6SM SKC
     FM040300 17007KT P6SM SKC
     FM041600 27007KT P6SM SKC=



000
FTUS45 KSLC 031734
TAFLGU
TAF
KLGU 031734Z 0318/0418 VRB04KT P6SM SKC
     FM040800 13006KT P6SM SKC
     FM041500 30006KT P6SM SKC=



000
FTUS45 KSLC 031734
TAFSGU
TAF
KSGU 031734Z 0318/0418 VRB05KT P6SM SKC
     FM032300 14010KT P6SM SKC
     FM041200 12006KT P6SM SKC
      AMD LTD TO CLD VIS AND WIND=



000
FTUS45 KSLC 031734
TAFBCE
TAF
KBCE 031734Z 0318/0418 14012KT P6SM FEW060
     FM040400 28005KT P6SM SKC
     FM041400 12008KT P6SM SKC=



000
FTUS45 KSLC 031734
TAFCDC
TAF
KCDC 031734Z 0318/0418 18006KT P6SM FEW100
     FM032000 02012KT P6SM SCT100
     FM040200 14004KT P6SM SKC
     FM041200 20008KT P6SM SCT100=



000
FTUS45 KSLC 031734
TAFPVU
TAF
KPVU 031734Z 0318/0418 VRB04KT P6SM SKC
     FM040400 13006KT P6SM SKC
     FM041700 15010KT P6SM SCT120
      AMD LTD TO CLD VIS AND WIND=



000
FTUS45 KSLC 031734
TAFSGU
TAF
KSGU 031734Z 0318/0418 VRB05KT P6SM SKC
     FM032300 14010KT P6SM SKC
     FM041200 12006KT P6SM SKC
      AMD LTD TO CLD VIS AND WIND=



000
FTUS45 KSLC 031734
TAFENV
TAF
KENV 031734Z 0318/0418 13007KT P6SM SKC
     FM040300 27007KT P6SM SKC
     FM041000 13006KT P6SM SKC
      AMD LTD TO CLD VIS AND WIND=



000
FTUS45 KSLC 031734
TAFSLC
TAF
KSLC 031734Z 0318/0424 33008KT P6SM SKC
     FM040400 15006KT P6SM SKC
     FM041900 31010KT P6SM SCT150=



000
FTUS45 KSLC 031734
TAFENV
TAF
KENV 031734Z 0318/0418 13007KT P6SM SKC
     FM040300 27007KT P6SM SKC
     FM041000 13006KT P6SM SKC
      AMD LTD TO CLD VIS AND WIND=



000
FTUS45 KSLC 031734
TAFSLC
TAF
KSLC 031734Z 0318/0424 33008KT P6SM SKC
     FM040400 15006KT P6SM SKC
     FM041900 31010KT P6SM SCT150=



000
FTUS45 KSLC 031734
TAFLGU
TAF
KLGU 031734Z 0318/0418 VRB04KT P6SM SKC
     FM040800 13006KT P6SM SKC
     FM041500 30006KT P6SM SKC=



000
FTUS45 KSLC 031734
TAFOGD
TAF
KOGD 031734Z 0318/0418 17008KT P6SM SKC
     FM031900 29007KT P6SM SKC
     FM040300 17007KT P6SM SKC
     FM041600 27007KT P6SM SKC=



000
FTUS45 KSLC 031734
TAFCDC
TAF
KCDC 031734Z 0318/0418 18006KT P6SM FEW100
     FM032000 02012KT P6SM SCT100
     FM040200 14004KT P6SM SKC
     FM041200 20008KT P6SM SCT100=



000
FTUS45 KSLC 031734
TAFBCE
TAF
KBCE 031734Z 0318/0418 14012KT P6SM FEW060
     FM040400 28005KT P6SM SKC
     FM041400 12008KT P6SM SKC=



000
FTUS45 KSLC 031734
TAFPVU
TAF
KPVU 031734Z 0318/0418 VRB04KT P6SM SKC
     FM040400 13006KT P6SM SKC
     FM041700 15010KT P6SM SCT120
      AMD LTD TO CLD VIS AND WIND=



000
FTUS45 KSLC 031450 AAA
TAFSLC
TAF AMD
KSLC 031450Z 0315/0418 15006KT P6SM SKC
     FM031800 31007KT P6SM SKC
     FM040400 15006KT P6SM SKC=



000
FTUS45 KSLC 031120
TAFLGU
TAF
KLGU 031120Z 0312/0412 VRB04KT P6SM SKC=



000
FTUS45 KSLC 031120
TAFSLC
TAF
KSLC 031120Z 0312/0418 15006KT P6SM SKC
     FM031800 31007KT P6SM SKC
     FM040400 15006KT P6SM SKC=



000
FTUS45 KSLC 031120
TAFPVU
TAF
KPVU 031120Z 0312/0412 VRB04KT P6SM SKC
      AMD LTD TO CLD VIS AND WIND=



000
FTUS45 KSLC 031120
TAFENV
TAF
KENV 031120Z 0312/0412 VRB04KT P6SM SKC
     FM031500 13007KT P6SM SKC
     FM040300 27007KT P6SM SKC
      AMD LTD TO CLD VIS AND WIND=



000
FTUS45 KSLC 031120
TAFOGD
TAF
KOGD 031120Z 0312/0412 17008KT P6SM SKC
     FM031900 29007KT P6SM SKC
     FM040300 17007KT P6SM SKC=



000
FTUS45 KSLC 031120
TAFCDC
TAF
KCDC 031120Z 0312/0412 04005KT P6SM SKC
     FM031700 18006KT P6SM FEW100
     FM040300 14004KT P6SM SKC=



000
FTUS45 KSLC 031120
TAFSGU
TAF
KSGU 031120Z 0312/0412 VRB05KT P6SM SKC
      AMD LTD TO CLD VIS AND WIND=



000
FTUS45 KSLC 031120
TAFBCE
TAF
KBCE 031120Z 0312/0412 28005KT P6SM SKC
     FM031700 14007KT P6SM FEW060
     FM040400 28005KT P6SM SKC=



    US Dept of Commerce
    National Oceanic and Atmospheric Administration
    National Weather Service
    1325 East West Highway
    Silver Spring, MD 20910
    Page Author: NWS Internet Services Team
Disclaimer
Information Quality
Credits
Glossary
Privacy Policy
Freedom of Information Act (FOIA)
About Us
Career Opportunities